sensor_id;sensor_type;location;lat;lon;timestamp;P1;durP1;ratioP1;P2;durP2;ratioP2
10565;SDS011;5331;48.148;16.326;2023-08-24T00:01:36;8.43;;;7.60;;
10565;SDS011;5331;48.148;16.326;2023-08-24T00:04:03;8.07;;;7.43;;
10565;SDS011;5331;48.148;16.326;2023-08-24T00:06:30;7.82;;;7.20;;
10565;SDS011;5331;48.148;16.326;2023-08-24T00:08:57;7.78;;;7.18;;
10565;SDS011;5331;48.148;16.326;2023-08-24T00:11:24;8.10;;;7.50;;
10565;SDS011;5331;48.148;16.326;2023-08-24T00:13:51;8.40;;;7.80;;
10565;SDS011;5331;48.148;16.326;2023-08-24T00:16:20;8.95;;;8.05;;
10565;SDS011;5331;48.148;16.326;2023-08-24T00:18:47;9.30;;;8.30;;
10565;SDS011;5331;48.148;16.326;2023-08-24T00:21:14;8.38;;;7.78;;
10565;SDS011;5331;48.148;16.326;2023-08-24T00:23:42;8.63;;;7.93;;
10565;SDS011;5331;48.148;16.326;2023-08-24T00:26:09;10.02;;;8.45;;
10565;SDS011;5331;48.148;16.326;2023-08-24T00:28:36;9.55;;;8.65;;
10565;SDS011;5331;48.148;16.326;2023-08-24T00:31:03;8.85;;;8.10;;
10565;SDS011;5331;48.148;16.326;2023-08-24T00:33:31;9.02;;;8.30;;
10565;SDS011;5331;48.148;16.326;2023-08-24T00:35:59;8.52;;;7.82;;
10565;SDS011;5331;48.148;16.326;2023-08-24T00:38:26;9.75;;;8.80;;
10565;SDS011;5331;48.148;16.326;2023-08-24T00:40:54;9.20;;;8.40;;
10565;SDS011;5331;48.148;16.326;2023-08-24T00:43:21;8.77;;;8.07;;
10565;SDS011;5331;48.148;16.326;2023-08-24T00:45:49;8.88;;;8.05;;
10565;SDS011;5331;48.148;16.326;2023-08-24T00:48:17;9.45;;;8.55;;
10565;SDS011;5331;48.148;16.326;2023-08-24T00:50:46;9.43;;;8.63;;
10565;SDS011;5331;48.148;16.326;2023-08-24T00:53:13;9.10;;;8.35;;
10565;SDS011;5331;48.148;16.326;2023-08-24T00:55:40;8.70;;;8.00;;
10565;SDS011;5331;48.148;16.326;2023-08-24T00:58:07;9.35;;;8.55;;
10565;SDS011;5331;48.148;16.326;2023-08-24T01:00:35;9.02;;;8.30;;
10565;SDS011;5331;48.148;16.326;2023-08-24T01:03:02;9.60;;;8.60;;
10565;SDS011;5331;48.148;16.326;2023-08-24T01:05:30;9.30;;;8.60;;
10565;SDS011;5331;48.148;16.326;2023-08-24T01:07:58;9.00;;;8.13;;
10565;SDS011;5331;48.148;16.326;2023-08-24T01:10:26;9.18;;;8.48;;
10565;SDS011;5331;48.148;16.326;2023-08-24T01:13:15;9.35;;;8.55;;
10565;SDS011;5331;48.148;16.326;2023-08-24T01:15:47;9.60;;;8.68;;
10565;SDS011;5331;48.148;16.326;2023-08-24T01:18:18;8.20;;;7.60;;
10565;SDS011;5331;48.148;16.326;2023-08-24T01:20:47;9.27;;;8.40;;
10565;SDS011;5331;48.148;16.326;2023-08-24T01:23:26;8.75;;;8.05;;
10565;SDS011;5331;48.148;16.326;2023-08-24T01:26:06;8.60;;;7.82;;
10565;SDS011;5331;48.148;16.326;2023-08-24T01:28:36;10.07;;;9.07;;
10565;SDS011;5331;48.148;16.326;2023-08-24T01:31:03;9.25;;;8.35;;
10565;SDS011;5331;48.148;16.326;2023-08-24T01:33:30;9.32;;;8.50;;
10565;SDS011;5331;48.148;16.326;2023-08-24T01:35:57;9.20;;;8.40;;
10565;SDS011;5331;48.148;16.326;2023-08-24T01:38:24;9.30;;;8.57;;
10565;SDS011;5331;48.148;16.326;2023-08-24T01:40:53;9.15;;;8.35;;
10565;SDS011;5331;48.148;16.326;2023-08-24T01:43:28;8.85;;;7.95;;
10565;SDS011;5331;48.148;16.326;2023-08-24T01:45:59;8.60;;;7.90;;
10565;SDS011;5331;48.148;16.326;2023-08-24T01:48:29;8.32;;;7.63;;
10565;SDS011;5331;48.148;16.326;2023-08-24T01:50:56;9.10;;;8.40;;
10565;SDS011;5331;48.148;16.326;2023-08-24T01:53:23;8.55;;;7.85;;
10565;SDS011;5331;48.148;16.326;2023-08-24T01:55:52;9.65;;;8.80;;
10565;SDS011;5331;48.148;16.326;2023-08-24T01:58:19;9.20;;;8.35;;
10565;SDS011;5331;48.148;16.326;2023-08-24T02:00:48;8.82;;;7.93;;
10565;SDS011;5331;48.148;16.326;2023-08-24T02:03:15;8.90;;;7.88;;
10565;SDS011;5331;48.148;16.326;2023-08-24T02:05:42;9.15;;;8.45;;
10565;SDS011;5331;48.148;16.326;2023-08-24T02:08:09;8.95;;;8.15;;
10565;SDS011;5331;48.148;16.326;2023-08-24T02:10:35;8.68;;;7.95;;
10565;SDS011;5331;48.148;16.326;2023-08-24T02:13:02;9.68;;;8.50;;
10565;SDS011;5331;48.148;16.326;2023-08-24T02:15:29;9.40;;;8.45;;
10565;SDS011;5331;48.148;16.326;2023-08-24T02:17:57;11.60;;;8.65;;
10565;SDS011;5331;48.148;16.326;2023-08-24T02:20:25;9.80;;;8.90;;
10565;SDS011;5331;48.148;16.326;2023-08-24T02:22:52;9.07;;;8.38;;
10565;SDS011;5331;48.148;16.326;2023-08-24T02:25:19;9.32;;;8.52;;
10565;SDS011;5331;48.148;16.326;2023-08-24T02:27:46;9.15;;;8.27;;
10565;SDS011;5331;48.148;16.326;2023-08-24T02:30:14;8.57;;;7.85;;
10565;SDS011;5331;48.148;16.326;2023-08-24T02:32:40;10.07;;;8.20;;
10565;SDS011;5331;48.148;16.326;2023-08-24T02:35:09;8.88;;;8.15;;
10565;SDS011;5331;48.148;16.326;2023-08-24T02:37:36;9.60;;;8.63;;
10565;SDS011;5331;48.148;16.326;2023-08-24T02:40:03;9.43;;;8.57;;
10565;SDS011;5331;48.148;16.326;2023-08-24T02:42:31;8.75;;;7.88;;
10565;SDS011;5331;48.148;16.326;2023-08-24T02:44:58;9.63;;;8.70;;
10565;SDS011;5331;48.148;16.326;2023-08-24T02:47:25;9.10;;;8.23;;
10565;SDS011;5331;48.148;16.326;2023-08-24T02:49:52;8.43;;;7.72;;
10565;SDS011;5331;48.148;16.326;2023-08-24T02:52:20;9.13;;;8.27;;
10565;SDS011;5331;48.148;16.326;2023-08-24T02:54:47;8.82;;;8.02;;
10565;SDS011;5331;48.148;16.326;2023-08-24T02:57:14;8.85;;;8.05;;
10565;SDS011;5331;48.148;16.326;2023-08-24T02:59:41;9.40;;;8.43;;
10565;SDS011;5331;48.148;16.326;2023-08-24T03:02:09;9.27;;;8.35;;
10565;SDS011;5331;48.148;16.326;2023-08-24T03:04:36;9.32;;;8.40;;
10565;SDS011;5331;48.148;16.326;2023-08-24T03:07:03;9.70;;;8.90;;
10565;SDS011;5331;48.148;16.326;2023-08-24T03:09:34;8.30;;;7.63;;
10565;SDS011;5331;48.148;16.326;2023-08-24T03:12:00;9.02;;;8.23;;
10565;SDS011;5331;48.148;16.326;2023-08-24T03:14:27;8.05;;;7.45;;
10565;SDS011;5331;48.148;16.326;2023-08-24T03:16:55;9.20;;;8.38;;
10565;SDS011;5331;48.148;16.326;2023-08-24T03:19:21;9.23;;;8.43;;
10565;SDS011;5331;48.148;16.326;2023-08-24T03:21:48;9.10;;;8.20;;
10565;SDS011;5331;48.148;16.326;2023-08-24T03:24:16;8.45;;;7.75;;
10565;SDS011;5331;48.148;16.326;2023-08-24T03:26:44;8.13;;;7.53;;
10565;SDS011;5331;48.148;16.326;2023-08-24T03:29:11;8.93;;;8.18;;
10565;SDS011;5331;48.148;16.326;2023-08-24T03:31:38;9.95;;;8.95;;
10565;SDS011;5331;48.148;16.326;2023-08-24T03:34:05;8.95;;;8.25;;
10565;SDS011;5331;48.148;16.326;2023-08-24T03:36:31;9.57;;;8.85;;
10565;SDS011;5331;48.148;16.326;2023-08-24T03:38:58;9.30;;;8.40;;
10565;SDS011;5331;48.148;16.326;2023-08-24T03:41:25;9.23;;;8.43;;
10565;SDS011;5331;48.148;16.326;2023-08-24T03:43:53;8.68;;;7.95;;
10565;SDS011;5331;48.148;16.326;2023-08-24T03:46:20;9.23;;;8.32;;
10565;SDS011;5331;48.148;16.326;2023-08-24T03:48:47;9.43;;;8.57;;
10565;SDS011;5331;48.148;16.326;2023-08-24T03:51:14;8.98;;;8.27;;
10565;SDS011;5331;48.148;16.326;2023-08-24T03:53:41;8.95;;;8.25;;
10565;SDS011;5331;48.148;16.326;2023-08-24T03:56:08;8.77;;;8.00;;
10565;SDS011;5331;48.148;16.326;2023-08-24T03:58:34;9.32;;;8.52;;
10565;SDS011;5331;48.148;16.326;2023-08-24T04:01:03;8.57;;;7.88;;
10565;SDS011;5331;48.148;16.326;2023-08-24T04:03:32;9.07;;;8.18;;
10565;SDS011;5331;48.148;16.326;2023-08-24T04:05:58;9.30;;;8.40;;
10565;SDS011;5331;48.148;16.326;2023-08-24T04:08:25;8.10;;;7.50;;
10565;SDS011;5331;48.148;16.326;2023-08-24T04:10:52;9.10;;;8.30;;
10565;SDS011;5331;48.148;16.326;2023-08-24T04:13:19;8.63;;;7.90;;
10565;SDS011;5331;48.148;16.326;2023-08-24T04:15:46;9.32;;;8.55;;
10565;SDS011;5331;48.148;16.326;2023-08-24T04:18:14;8.90;;;8.10;;
10565;SDS011;5331;48.148;16.326;2023-08-24T04:20:41;9.35;;;8.55;;
10565;SDS011;5331;48.148;16.326;2023-08-24T04:23:08;8.90;;;8.07;;
10565;SDS011;5331;48.148;16.326;2023-08-24T04:25:38;9.05;;;8.20;;
10565;SDS011;5331;48.148;16.326;2023-08-24T04:28:05;10.05;;;9.13;;
10565;SDS011;5331;48.148;16.326;2023-08-24T04:30:32;9.50;;;8.63;;
10565;SDS011;5331;48.148;16.326;2023-08-24T04:32:59;9.48;;;8.60;;
10565;SDS011;5331;48.148;16.326;2023-08-24T04:35:29;9.27;;;8.48;;
10565;SDS011;5331;48.148;16.326;2023-08-24T04:38:00;9.63;;;8.73;;
10565;SDS011;5331;48.148;16.326;2023-08-24T04:40:27;10.18;;;9.27;;
10565;SDS011;5331;48.148;16.326;2023-08-24T04:42:53;9.25;;;8.52;;
10565;SDS011;5331;48.148;16.326;2023-08-24T04:45:20;9.63;;;8.73;;
10565;SDS011;5331;48.148;16.326;2023-08-24T04:47:46;10.10;;;9.20;;
10565;SDS011;5331;48.148;16.326;2023-08-24T04:50:13;8.38;;;7.78;;
10565;SDS011;5331;48.148;16.326;2023-08-24T04:52:42;10.07;;;9.10;;
10565;SDS011;5331;48.148;16.326;2023-08-24T04:55:09;9.85;;;8.98;;
10565;SDS011;5331;48.148;16.326;2023-08-24T04:57:35;8.25;;;7.55;;
10565;SDS011;5331;48.148;16.326;2023-08-24T05:00:03;9.73;;;8.88;;
10565;SDS011;5331;48.148;16.326;2023-08-24T05:02:31;9.98;;;9.05;;
10565;SDS011;5331;48.148;16.326;2023-08-24T05:04:58;9.63;;;8.82;;
10565;SDS011;5331;48.148;16.326;2023-08-24T05:07:25;10.05;;;9.15;;
10565;SDS011;5331;48.148;16.326;2023-08-24T05:09:54;10.55;;;9.60;;
10565;SDS011;5331;48.148;16.326;2023-08-24T05:12:21;10.60;;;9.27;;
10565;SDS011;5331;48.148;16.326;2023-08-24T05:14:48;8.80;;;8.10;;
10565;SDS011;5331;48.148;16.326;2023-08-24T05:17:15;10.15;;;9.25;;
10565;SDS011;5331;48.148;16.326;2023-08-24T05:19:42;10.93;;;9.93;;
10565;SDS011;5331;48.148;16.326;2023-08-24T05:22:09;9.40;;;8.50;;
10565;SDS011;5331;48.148;16.326;2023-08-24T05:24:36;10.70;;;9.35;;
10565;SDS011;5331;48.148;16.326;2023-08-24T05:27:04;9.90;;;8.95;;
10565;SDS011;5331;48.148;16.326;2023-08-24T05:29:31;9.70;;;8.90;;
10565;SDS011;5331;48.148;16.326;2023-08-24T05:31:58;9.55;;;8.73;;
10565;SDS011;5331;48.148;16.326;2023-08-24T05:34:25;10.40;;;9.38;;
10565;SDS011;5331;48.148;16.326;2023-08-24T05:36:52;10.25;;;9.40;;
10565;SDS011;5331;48.148;16.326;2023-08-24T05:39:19;10.23;;;9.27;;
10565;SDS011;5331;48.148;16.326;2023-08-24T05:41:46;9.95;;;9.05;;
10565;SDS011;5331;48.148;16.326;2023-08-24T05:44:17;10.05;;;9.15;;
10565;SDS011;5331;48.148;16.326;2023-08-24T05:46:45;10.65;;;9.65;;
10565;SDS011;5331;48.148;16.326;2023-08-24T05:49:12;10.55;;;9.65;;
10565;SDS011;5331;48.148;16.326;2023-08-24T05:51:39;10.73;;;9.80;;
10565;SDS011;5331;48.148;16.326;2023-08-24T05:54:06;11.55;;;10.45;;
10565;SDS011;5331;48.148;16.326;2023-08-24T05:56:33;10.73;;;9.82;;
10565;SDS011;5331;48.148;16.326;2023-08-24T05:59:00;10.57;;;9.52;;
10565;SDS011;5331;48.148;16.326;2023-08-24T06:01:28;10.55;;;9.65;;
10565;SDS011;5331;48.148;16.326;2023-08-24T06:03:55;11.90;;;10.20;;
10565;SDS011;5331;48.148;16.326;2023-08-24T06:06:22;10.68;;;9.68;;
10565;SDS011;5331;48.148;16.326;2023-08-24T06:08:48;10.73;;;9.73;;
10565;SDS011;5331;48.148;16.326;2023-08-24T06:11:15;10.43;;;9.27;;
10565;SDS011;5331;48.148;16.326;2023-08-24T06:13:43;8.80;;;8.10;;
10565;SDS011;5331;48.148;16.326;2023-08-24T06:16:10;9.85;;;8.98;;
10565;SDS011;5331;48.148;16.326;2023-08-24T06:18:38;9.20;;;8.50;;
10565;SDS011;5331;48.148;16.326;2023-08-24T06:21:05;9.32;;;8.43;;
10565;SDS011;5331;48.148;16.326;2023-08-24T06:23:33;9.20;;;8.32;;
10565;SDS011;5331;48.148;16.326;2023-08-24T06:26:00;8.80;;;8.00;;
10565;SDS011;5331;48.148;16.326;2023-08-24T06:28:27;9.60;;;8.80;;
10565;SDS011;5331;48.148;16.326;2023-08-24T06:30:54;10.70;;;9.65;;
10565;SDS011;5331;48.148;16.326;2023-08-24T06:33:21;9.60;;;8.80;;
10565;SDS011;5331;48.148;16.326;2023-08-24T06:35:56;9.20;;;8.40;;
10565;SDS011;5331;48.148;16.326;2023-08-24T06:38:23;9.80;;;9.00;;
10565;SDS011;5331;48.148;16.326;2023-08-24T06:40:50;9.55;;;8.77;;
10565;SDS011;5331;48.148;16.326;2023-08-24T06:43:17;9.30;;;8.40;;
10565;SDS011;5331;48.148;16.326;2023-08-24T06:45:44;10.07;;;9.05;;
10565;SDS011;5331;48.148;16.326;2023-08-24T06:48:11;10.02;;;9.20;;
10565;SDS011;5331;48.148;16.326;2023-08-24T06:50:38;10.68;;;9.48;;
10565;SDS011;5331;48.148;16.326;2023-08-24T06:53:06;10.43;;;9.30;;
10565;SDS011;5331;48.148;16.326;2023-08-24T06:55:33;9.65;;;8.85;;
10565;SDS011;5331;48.148;16.326;2023-08-24T06:58:01;9.80;;;8.90;;
10565;SDS011;5331;48.148;16.326;2023-08-24T07:00:30;9.23;;;8.52;;
10565;SDS011;5331;48.148;16.326;2023-08-24T07:02:57;9.82;;;9.05;;
10565;SDS011;5331;48.148;16.326;2023-08-24T07:05:24;10.10;;;9.10;;
10565;SDS011;5331;48.148;16.326;2023-08-24T07:07:52;9.80;;;9.00;;
10565;SDS011;5331;48.148;16.326;2023-08-24T07:10:20;10.27;;;9.32;;
10565;SDS011;5331;48.148;16.326;2023-08-24T07:12:47;9.20;;;8.50;;
10565;SDS011;5331;48.148;16.326;2023-08-24T07:15:14;9.77;;;8.90;;
10565;SDS011;5331;48.148;16.326;2023-08-24T07:17:41;10.13;;;9.13;;
10565;SDS011;5331;48.148;16.326;2023-08-24T07:20:08;10.02;;;9.10;;
10565;SDS011;5331;48.148;16.326;2023-08-24T07:22:36;10.25;;;9.40;;
10565;SDS011;5331;48.148;16.326;2023-08-24T07:25:04;10.73;;;9.73;;
10565;SDS011;5331;48.148;16.326;2023-08-24T07:27:33;11.73;;;10.60;;
10565;SDS011;5331;48.148;16.326;2023-08-24T07:30:00;10.80;;;9.73;;
10565;SDS011;5331;48.148;16.326;2023-08-24T07:32:30;10.82;;;9.73;;
10565;SDS011;5331;48.148;16.326;2023-08-24T07:34:58;11.70;;;10.50;;
10565;SDS011;5331;48.148;16.326;2023-08-24T07:37:25;10.40;;;8.88;;
10565;SDS011;5331;48.148;16.326;2023-08-24T07:39:52;10.20;;;9.35;;
10565;SDS011;5331;48.148;16.326;2023-08-24T07:42:19;13.77;;;9.38;;
10565;SDS011;5331;48.148;16.326;2023-08-24T07:44:48;10.77;;;9.65;;
10565;SDS011;5331;48.148;16.326;2023-08-24T07:47:15;10.00;;;9.10;;
10565;SDS011;5331;48.148;16.326;2023-08-24T07:49:42;9.85;;;8.82;;
10565;SDS011;5331;48.148;16.326;2023-08-24T07:52:09;11.40;;;10.30;;
10565;SDS011;5331;48.148;16.326;2023-08-24T07:54:37;11.48;;;10.48;;
10565;SDS011;5331;48.148;16.326;2023-08-24T07:57:04;15.25;;;10.13;;
10565;SDS011;5331;48.148;16.326;2023-08-24T07:59:31;9.77;;;8.85;;
10565;SDS011;5331;48.148;16.326;2023-08-24T08:01:59;11.40;;;10.27;;
10565;SDS011;5331;48.148;16.326;2023-08-24T08:04:26;9.95;;;9.00;;
10565;SDS011;5331;48.148;16.326;2023-08-24T08:06:53;10.77;;;9.70;;
10565;SDS011;5331;48.148;16.326;2023-08-24T08:09:21;11.20;;;9.95;;
10565;SDS011;5331;48.148;16.326;2023-08-24T08:11:48;10.90;;;9.88;;
10565;SDS011;5331;48.148;16.326;2023-08-24T08:14:15;10.05;;;9.07;;
10565;SDS011;5331;48.148;16.326;2023-08-24T08:16:41;10.30;;;9.30;;
10565;SDS011;5331;48.148;16.326;2023-08-24T08:19:10;10.68;;;9.75;;
10565;SDS011;5331;48.148;16.326;2023-08-24T08:21:36;10.43;;;9.32;;
10565;SDS011;5331;48.148;16.326;2023-08-24T08:24:03;10.77;;;9.65;;
10565;SDS011;5331;48.148;16.326;2023-08-24T08:26:30;10.38;;;9.25;;
10565;SDS011;5331;48.148;16.326;2023-08-24T08:28:57;9.80;;;8.90;;
10565;SDS011;5331;48.148;16.326;2023-08-24T08:31:24;12.13;;;10.52;;
10565;SDS011;5331;48.148;16.326;2023-08-24T08:33:51;10.73;;;9.75;;
10565;SDS011;5331;48.148;16.326;2023-08-24T08:36:19;11.23;;;9.65;;
10565;SDS011;5331;48.148;16.326;2023-08-24T08:38:46;11.13;;;10.02;;
10565;SDS011;5331;48.148;16.326;2023-08-24T08:41:14;10.55;;;9.23;;
10565;SDS011;5331;48.148;16.326;2023-08-24T08:43:43;11.35;;;10.02;;
10565;SDS011;5331;48.148;16.326;2023-08-24T08:46:10;9.43;;;8.70;;
10565;SDS011;5331;48.148;16.326;2023-08-24T08:48:39;9.63;;;8.73;;
10565;SDS011;5331;48.148;16.326;2023-08-24T08:51:07;9.57;;;8.77;;
10565;SDS011;5331;48.148;16.326;2023-08-24T08:53:36;10.88;;;9.77;;
10565;SDS011;5331;48.148;16.326;2023-08-24T08:56:03;9.40;;;8.35;;
10565;SDS011;5331;48.148;16.326;2023-08-24T08:58:31;9.98;;;8.75;;
10565;SDS011;5331;48.148;16.326;2023-08-24T09:01:01;9.10;;;8.23;;
10565;SDS011;5331;48.148;16.326;2023-08-24T09:03:29;9.80;;;8.90;;
10565;SDS011;5331;48.148;16.326;2023-08-24T09:05:57;9.77;;;7.80;;
10565;SDS011;5331;48.148;16.326;2023-08-24T09:08:24;9.18;;;8.30;;
10565;SDS011;5331;48.148;16.326;2023-08-24T09:10:54;9.80;;;8.13;;
10565;SDS011;5331;48.148;16.326;2023-08-24T09:13:21;9.20;;;8.45;;
10565;SDS011;5331;48.148;16.326;2023-08-24T09:15:50;9.43;;;8.40;;
10565;SDS011;5331;48.148;16.326;2023-08-24T09:18:18;9.30;;;8.20;;
10565;SDS011;5331;48.148;16.326;2023-08-24T09:20:46;10.85;;;8.27;;
10565;SDS011;5331;48.148;16.326;2023-08-24T09:23:19;9.30;;;8.40;;
10565;SDS011;5331;48.148;16.326;2023-08-24T09:25:46;8.70;;;7.90;;
10565;SDS011;5331;48.148;16.326;2023-08-24T09:28:15;9.35;;;8.52;;
10565;SDS011;5331;48.148;16.326;2023-08-24T09:30:52;9.10;;;8.20;;
10565;SDS011;5331;48.148;16.326;2023-08-24T09:33:20;8.57;;;7.78;;
10565;SDS011;5331;48.148;16.326;2023-08-24T09:35:51;9.05;;;8.15;;
10565;SDS011;5331;48.148;16.326;2023-08-24T09:38:19;8.77;;;7.95;;
10565;SDS011;5331;48.148;16.326;2023-08-24T09:40:50;8.50;;;7.80;;
10565;SDS011;5331;48.148;16.326;2023-08-24T09:43:19;8.63;;;7.90;;
10565;SDS011;5331;48.148;16.326;2023-08-24T09:45:49;8.68;;;7.80;;
10565;SDS011;5331;48.148;16.326;2023-08-24T09:48:16;8.50;;;7.60;;
10565;SDS011;5331;48.148;16.326;2023-08-24T09:50:44;8.50;;;7.80;;
10565;SDS011;5331;48.148;16.326;2023-08-24T09:53:14;8.75;;;7.95;;
10565;SDS011;5331;48.148;16.326;2023-08-24T09:55:44;8.63;;;7.93;;
10565;SDS011;5331;48.148;16.326;2023-08-24T09:58:14;9.60;;;8.68;;
10565;SDS011;5331;48.148;16.326;2023-08-24T10:00:43;9.68;;;8.70;;
10565;SDS011;5331;48.148;16.326;2023-08-24T10:03:12;9.65;;;8.85;;
10565;SDS011;5331;48.148;16.326;2023-08-24T10:05:45;9.38;;;8.27;;
10565;SDS011;5331;48.148;16.326;2023-08-24T10:08:13;9.27;;;8.48;;
10565;SDS011;5331;48.148;16.326;2023-08-24T10:10:41;8.85;;;8.13;;
10565;SDS011;5331;48.148;16.326;2023-08-24T10:13:11;8.82;;;8.02;;
10565;SDS011;5331;48.148;16.326;2023-08-24T10:15:45;8.18;;;7.55;;
10565;SDS011;5331;48.148;16.326;2023-08-24T10:18:14;8.50;;;7.72;;
10565;SDS011;5331;48.148;16.326;2023-08-24T10:20:42;9.07;;;8.20;;
10565;SDS011;5331;48.148;16.326;2023-08-24T10:23:10;9.40;;;8.50;;
10565;SDS011;5331;48.148;16.326;2023-08-24T10:25:38;7.85;;;7.25;;
10565;SDS011;5331;48.148;16.326;2023-08-24T10:28:07;9.05;;;8.18;;
10565;SDS011;5331;48.148;16.326;2023-08-24T10:30:35;8.73;;;7.90;;
10565;SDS011;5331;48.148;16.326;2023-08-24T10:33:04;8.65;;;7.85;;
10565;SDS011;5331;48.148;16.326;2023-08-24T10:35:31;9.15;;;8.10;;
10565;SDS011;5331;48.148;16.326;2023-08-24T10:37:58;9.40;;;8.50;;
10565;SDS011;5331;48.148;16.326;2023-08-24T10:40:32;8.30;;;7.60;;
10565;SDS011;5331;48.148;16.326;2023-08-24T10:43:02;8.98;;;8.07;;
10565;SDS011;5331;48.148;16.326;2023-08-24T10:48:23;8.90;;;8.10;;
10565;SDS011;5331;48.148;16.326;2023-08-24T10:53:45;9.68;;;7.93;;
10565;SDS011;5331;48.148;16.326;2023-08-24T10:56:13;8.95;;;8.10;;
10565;SDS011;5331;48.148;16.326;2023-08-24T10:58:41;9.05;;;8.25;;
10565;SDS011;5331;48.148;16.326;2023-08-24T11:01:13;13.30;;;8.50;;
10565;SDS011;5331;48.148;16.326;2023-08-24T11:03:46;9.07;;;8.32;;
10565;SDS011;5331;48.148;16.326;2023-08-24T11:06:19;9.35;;;8.25;;
10565;SDS011;5331;48.148;16.326;2023-08-24T11:08:47;9.07;;;8.32;;
10565;SDS011;5331;48.148;16.326;2023-08-24T11:11:18;8.90;;;8.10;;
10565;SDS011;5331;48.148;16.326;2023-08-24T11:16:40;13.13;;;8.80;;
10565;SDS011;5331;48.148;16.326;2023-08-24T11:19:09;9.10;;;8.35;;
10565;SDS011;5331;48.148;16.326;2023-08-24T11:21:37;9.18;;;8.20;;
10565;SDS011;5331;48.148;16.326;2023-08-24T11:24:05;8.90;;;8.07;;
10565;SDS011;5331;48.148;16.326;2023-08-24T11:26:31;9.25;;;8.45;;
10565;SDS011;5331;48.148;16.326;2023-08-24T11:28:58;9.25;;;8.35;;
10565;SDS011;5331;48.148;16.326;2023-08-24T11:31:25;9.55;;;8.55;;
10565;SDS011;5331;48.148;16.326;2023-08-24T11:33:53;9.43;;;7.88;;
10565;SDS011;5331;48.148;16.326;2023-08-24T11:36:22;9.25;;;8.43;;
10565;SDS011;5331;48.148;16.326;2023-08-24T11:38:51;11.00;;;8.45;;
10565;SDS011;5331;48.148;16.326;2023-08-24T11:41:18;9.35;;;8.55;;
10565;SDS011;5331;48.148;16.326;2023-08-24T11:43:46;8.77;;;8.07;;
10565;SDS011;5331;48.148;16.326;2023-08-24T11:46:16;9.13;;;8.18;;
10565;SDS011;5331;48.148;16.326;2023-08-24T11:48:43;10.00;;;9.20;;
10565;SDS011;5331;48.148;16.326;2023-08-24T11:51:11;10.95;;;8.13;;
10565;SDS011;5331;48.148;16.326;2023-08-24T11:53:39;8.98;;;8.13;;
10565;SDS011;5331;48.148;16.326;2023-08-24T11:56:08;9.15;;;8.10;;
10565;SDS011;5331;48.148;16.326;2023-08-24T11:58:37;8.88;;;8.18;;
10565;SDS011;5331;48.148;16.326;2023-08-24T12:01:05;9.30;;;8.35;;
10565;SDS011;5331;48.148;16.326;2023-08-24T12:03:32;8.85;;;8.15;;
10565;SDS011;5331;48.148;16.326;2023-08-24T12:05:59;8.73;;;8.02;;
10565;SDS011;5331;48.148;16.326;2023-08-24T12:08:27;8.57;;;7.88;;
10565;SDS011;5331;48.148;16.326;2023-08-24T12:10:55;8.98;;;8.18;;
10565;SDS011;5331;48.148;16.326;2023-08-24T12:13:23;9.23;;;8.35;;
10565;SDS011;5331;48.148;16.326;2023-08-24T12:15:52;8.45;;;7.70;;
10565;SDS011;5331;48.148;16.326;2023-08-24T12:18:20;8.63;;;7.93;;
10565;SDS011;5331;48.148;16.326;2023-08-24T12:20:46;8.98;;;8.15;;
10565;SDS011;5331;48.148;16.326;2023-08-24T12:23:14;8.48;;;7.78;;
10565;SDS011;5331;48.148;16.326;2023-08-24T12:25:42;8.75;;;8.00;;
10565;SDS011;5331;48.148;16.326;2023-08-24T12:28:11;8.50;;;7.80;;
10565;SDS011;5331;48.148;16.326;2023-08-24T12:30:43;8.30;;;7.57;;
10565;SDS011;5331;48.148;16.326;2023-08-24T12:33:20;8.35;;;7.65;;
10565;SDS011;5331;48.148;16.326;2023-08-24T12:35:48;8.10;;;7.40;;
10565;SDS011;5331;48.148;16.326;2023-08-24T12:38:15;8.60;;;7.80;;
10565;SDS011;5331;48.148;16.326;2023-08-24T12:40:42;10.60;;;8.38;;
10565;SDS011;5331;48.148;16.326;2023-08-24T12:43:09;8.85;;;7.53;;
10565;SDS011;5331;48.148;16.326;2023-08-24T12:45:37;8.35;;;7.65;;
10565;SDS011;5331;48.148;16.326;2023-08-24T12:48:04;8.57;;;7.78;;
10565;SDS011;5331;48.148;16.326;2023-08-24T12:50:32;7.85;;;7.20;;
10565;SDS011;5331;48.148;16.326;2023-08-24T12:52:59;8.55;;;7.60;;
10565;SDS011;5331;48.148;16.326;2023-08-24T12:55:26;9.30;;;7.55;;
10565;SDS011;5331;48.148;16.326;2023-08-24T12:57:53;8.15;;;7.45;;
10565;SDS011;5331;48.148;16.326;2023-08-24T13:00:20;8.38;;;7.30;;
10565;SDS011;5331;48.148;16.326;2023-08-24T13:02:49;8.10;;;7.30;;
10565;SDS011;5331;48.148;16.326;2023-08-24T13:05:16;8.48;;;7.50;;
10565;SDS011;5331;48.148;16.326;2023-08-24T13:07:43;7.55;;;6.80;;
10565;SDS011;5331;48.148;16.326;2023-08-24T13:10:10;8.10;;;7.50;;
10565;SDS011;5331;48.148;16.326;2023-08-24T13:12:38;8.00;;;7.30;;
10565;SDS011;5331;48.148;16.326;2023-08-24T13:15:05;7.72;;;7.10;;
10565;SDS011;5331;48.148;16.326;2023-08-24T13:17:33;8.98;;;7.75;;
10565;SDS011;5331;48.148;16.326;2023-08-24T13:20:01;7.90;;;7.22;;
10565;SDS011;5331;48.148;16.326;2023-08-24T13:22:29;8.50;;;7.70;;
10565;SDS011;5331;48.148;16.326;2023-08-24T13:24:55;8.45;;;7.55;;
10565;SDS011;5331;48.148;16.326;2023-08-24T13:27:23;8.10;;;7.30;;
10565;SDS011;5331;48.148;16.326;2023-08-24T13:29:50;8.43;;;7.50;;
10565;SDS011;5331;48.148;16.326;2023-08-24T13:32:17;7.60;;;6.93;;
10565;SDS011;5331;48.148;16.326;2023-08-24T13:34:44;8.48;;;7.68;;
10565;SDS011;5331;48.148;16.326;2023-08-24T13:37:13;7.78;;;6.97;;
10565;SDS011;5331;48.148;16.326;2023-08-24T13:39:39;7.70;;;7.10;;
10565;SDS011;5331;48.148;16.326;2023-08-24T13:42:06;6.78;;;6.18;;
10565;SDS011;5331;48.148;16.326;2023-08-24T13:44:33;7.85;;;7.05;;
10565;SDS011;5331;48.148;16.326;2023-08-24T13:47:00;7.78;;;6.90;;
10565;SDS011;5331;48.148;16.326;2023-08-24T13:49:27;7.10;;;6.40;;
10565;SDS011;5331;48.148;16.326;2023-08-24T13:51:54;7.78;;;7.03;;
10565;SDS011;5331;48.148;16.326;2023-08-24T13:54:22;8.43;;;6.78;;
10565;SDS011;5331;48.148;16.326;2023-08-24T13:56:51;7.22;;;6.60;;
10565;SDS011;5331;48.148;16.326;2023-08-24T13:59:19;7.78;;;7.07;;
10565;SDS011;5331;48.148;16.326;2023-08-24T14:01:46;7.72;;;7.13;;
10565;SDS011;5331;48.148;16.326;2023-08-24T14:04:13;7.80;;;7.10;;
10565;SDS011;5331;48.148;16.326;2023-08-24T14:06:40;7.97;;;7.28;;
10565;SDS011;5331;48.148;16.326;2023-08-24T14:09:07;7.25;;;6.75;;
10565;SDS011;5331;48.148;16.326;2023-08-24T14:11:35;7.65;;;6.95;;
10565;SDS011;5331;48.148;16.326;2023-08-24T14:14:02;8.02;;;7.32;;
10565;SDS011;5331;48.148;16.326;2023-08-24T14:16:29;9.48;;;7.55;;
10565;SDS011;5331;48.148;16.326;2023-08-24T14:18:56;8.15;;;7.45;;
10565;SDS011;5331;48.148;16.326;2023-08-24T14:21:22;8.40;;;7.68;;
10565;SDS011;5331;48.148;16.326;2023-08-24T14:23:49;8.20;;;7.50;;
10565;SDS011;5331;48.148;16.326;2023-08-24T14:26:16;7.82;;;7.13;;
10565;SDS011;5331;48.148;16.326;2023-08-24T14:28:48;7.47;;;6.88;;
10565;SDS011;5331;48.148;16.326;2023-08-24T14:31:18;8.20;;;7.47;;
10565;SDS011;5331;48.148;16.326;2023-08-24T14:33:45;7.70;;;7.00;;
10565;SDS011;5331;48.148;16.326;2023-08-24T14:36:12;8.40;;;7.60;;
10565;SDS011;5331;48.148;16.326;2023-08-24T14:38:39;7.93;;;7.07;;
10565;SDS011;5331;48.148;16.326;2023-08-24T14:41:06;8.20;;;7.43;;
10565;SDS011;5331;48.148;16.326;2023-08-24T14:43:33;8.35;;;7.53;;
10565;SDS011;5331;48.148;16.326;2023-08-24T14:46:01;8.60;;;7.80;;
10565;SDS011;5331;48.148;16.326;2023-08-24T14:48:28;7.63;;;6.97;;
10565;SDS011;5331;48.148;16.326;2023-08-24T14:50:56;11.43;;;7.57;;
10565;SDS011;5331;48.148;16.326;2023-08-24T14:53:23;7.93;;;7.20;;
10565;SDS011;5331;48.148;16.326;2023-08-24T14:55:50;8.50;;;7.60;;
10565;SDS011;5331;48.148;16.326;2023-08-24T14:58:19;7.57;;;6.90;;